Mountainair, New Mexico
Current Conditions -  °F | °C
As of 2:55 AM on Friday 19 Dec 2014 (Local Time) from K0E0 Reporting Station
Clear Clear  
Wind Chill: 16°   Ceiling: Unl
Heat Index: 25°   Visibility: 10mi
Dew Point: 20°   Wind: 9mph
Humidity: 82%   Direction: 290°WNW
Pressure: 30.13"   Gusts: NA
Location:  34.52°N, 106.24°W
Report Text: K0E0 190955Z AUTO 29008KT 10SM CLR M04/M06 A3013 RMK AO2 T10391065
Loading
Personal Weather Stations






























Interactive Weather Map New forecast layout! Learn more

10-Day Weather Forecast

Advertisements
Track Severe Weather on mobile